Time;durP1;ratioP1;P1;durP2;ratioP2;P2;SDS_P1;SDS_P2;PMS_P1;PMS_P2;Temp;Humidity;BMP_temperature;BMP_pressure;BME280_temperature;BME280_humidity;BME280_pressure;Samples;Min_cycle;Max_cycle;Signal;HPM_P1;HPM_P2
2022/04/10 00:01:40;;;;;;;13.07;4.57;;;3.10;99.90;;;;;;5011395;28;20273;-91
2022/04/10 00:04:07;;;;;;;9.50;4.37;;;3.10;99.90;;;;;;5012200;28;20537;-89
2022/04/10 00:06:34;;;;;;;10.83;3.67;;;3.10;99.90;;;;;;5017560;28;20231;-90
2022/04/10 00:09:01;;;;;;;14.70;4.73;;;3.00;99.90;;;;;;5027445;28;20234;-89
2022/04/10 00:11:29;;;;;;;12.83;4.30;;;3.10;99.90;;;;;;5016225;28;20208;-91
2022/04/10 00:13:56;;;;;;;11.43;3.50;;;3.10;99.90;;;;;;5013656;28;20261;-90
2022/04/10 00:16:23;;;;;;;9.87;3.63;;;3.10;99.90;;;;;;5015712;28;20350;-89
2022/04/10 00:18:51;;;;;;;13.10;4.03;;;3.10;99.90;;;;;;5018487;28;20210;-89
2022/04/10 00:21:19;;;;;;;17.43;4.37;;;3.10;99.90;;;;;;5007852;28;20219;-90
2022/04/10 00:23:48;;;;;;;13.70;3.27;;;3.10;99.90;;;;;;5011289;28;20211;-90
2022/04/10 00:26:14;;;;;;;15.63;3.83;;;3.10;99.90;;;;;;5012625;28;20277;-90
2022/04/10 00:28:44;;;;;;;9.87;3.60;;;3.10;99.90;;;;;;5013556;28;20486;-91
2022/04/10 00:31:12;;;;;;;7.33;3.10;;;3.10;99.90;;;;;;5016416;28;20209;-90
2022/04/10 00:33:40;;;;;;;17.00;4.20;;;3.10;99.90;;;;;;5010018;28;20565;-90
2022/04/10 00:36:07;;;;;;;12.50;4.20;;;3.20;99.90;;;;;;5009791;28;20277;-92
2022/04/10 00:38:33;;;;;;;18.93;5.10;;;3.20;99.90;;;;;;5014153;28;20232;-91
2022/04/10 00:41:00;;;;;;;11.13;3.67;;;3.20;99.90;;;;;;5008598;28;20717;-90
2022/04/10 00:43:32;;;;;;;9.33;4.20;;;3.20;99.90;;;;;;5011537;28;20721;-91
2022/04/10 00:46:00;;;;;;;12.40;4.07;;;3.20;99.90;;;;;;5011140;28;20337;-88
2022/04/10 00:48:28;;;;;;;20.33;4.30;;;3.10;99.90;;;;;;5000869;28;20269;-90
2022/04/10 00:53:50;;;;;;;14.63;3.60;;;3.20;99.90;;;;;;4997427;28;20601;-90
2022/04/10 00:56:16;;;;;;;9.83;3.17;;;3.10;99.90;;;;;;5010409;28;20286;-90
2022/04/10 00:58:43;;;;;;;12.13;3.27;;;3.10;99.90;;;;;;5010723;28;20238;-90
2022/04/10 01:01:15;;;;;;;14.27;3.30;;;3.20;99.90;;;;;;5012745;28;20264;-91
2022/04/10 01:03:42;;;;;;;12.57;3.20;;;3.10;99.90;;;;;;5012648;28;20301;-90
2022/04/10 01:06:09;;;;;;;12.73;3.63;;;3.20;99.90;;;;;;5011122;28;20206;-89
2022/04/10 01:08:36;;;;;;;10.00;4.17;;;3.20;99.90;;;;;;5013309;28;20226;-88
2022/04/10 01:11:04;;;;;;;23.00;4.93;;;3.20;99.90;;;;;;5016159;28;20250;-90
2022/04/10 01:13:32;;;;;;;9.70;2.93;;;3.20;99.90;;;;;;5011224;28;20238;-89
2022/04/10 01:15:59;;;;;;;1.87;1.40;;;3.20;99.90;;;;;;5012049;28;20672;-90
2022/04/10 01:18:26;;;;;;;3.20;1.50;;;3.30;99.90;;;;;;5004321;28;20207;-90
2022/04/10 01:20:53;;;;;;;2.57;1.37;;;3.30;99.90;;;;;;5006211;28;20297;-87
2022/04/10 01:23:23;;;;;;;5.40;1.60;;;3.40;99.90;;;;;;5005046;28;20225;-90
2022/04/10 01:25:51;;;;;;;5.50;1.60;;;3.40;99.90;;;;;;5027276;28;20202;-90
2022/04/10 01:28:19;;;;;;;2.93;1.43;;;3.50;99.90;;;;;;5016391;28;20227;-89
2022/04/10 01:30:46;;;;;;;3.07;1.63;;;3.50;99.90;;;;;;5010334;28;20230;-90
2022/04/10 01:33:14;;;;;;;6.23;1.93;;;3.50;99.90;;;;;;5002475;28;20208;-89
2022/04/10 01:35:40;;;;;;;9.23;1.90;;;3.50;99.90;;;;;;5004496;28;20212;-90
2022/04/10 01:38:11;;;;;;;7.83;1.90;;;3.40;99.90;;;;;;5010133;28;20215;-91
2022/04/10 01:40:38;;;;;;;8.13;1.97;;;3.40;99.90;;;;;;5013052;28;20234;-89
2022/04/10 01:43:13;;;;;;;5.80;1.97;;;3.40;99.90;;;;;;5013019;28;20234;-89
2022/04/10 01:45:40;;;;;;;6.00;1.83;;;3.30;99.90;;;;;;5011019;28;20565;-90
2022/04/10 01:48:07;;;;;;;6.70;2.30;;;3.30;99.90;;;;;;5008497;28;20344;-89
2022/04/10 01:50:34;;;;;;;4.57;1.73;;;3.30;99.90;;;;;;5002365;28;20353;-89
2022/04/10 01:53:05;;;;;;;8.87;2.03;;;3.20;99.90;;;;;;5006682;28;20207;-88
2022/04/10 01:55:32;;;;;;;7.17;2.67;;;3.20;99.90;;;;;;5013585;28;20218;-89
2022/04/10 01:57:59;;;;;;;7.13;2.40;;;3.10;99.90;;;;;;5011010;28;20233;-88
2022/04/10 02:00:26;;;;;;;4.40;1.93;;;3.10;99.90;;;;;;5008417;28;20293;-90
2022/04/10 02:02:53;;;;;;;6.07;2.00;;;3.00;99.90;;;;;;5009518;28;20569;-90
2022/04/10 02:05:25;;;;;;;6.40;2.17;;;3.00;99.90;;;;;;5010723;28;20246;-89
2022/04/10 02:07:52;;;;;;;8.43;2.63;;;3.00;99.90;;;;;;5020233;28;20302;-88
2022/04/10 02:10:18;;;;;;;8.60;3.10;;;2.90;99.90;;;;;;5006587;28;20672;-90
2022/04/10 02:12:48;;;;;;;7.30;2.40;;;2.90;99.90;;;;;;5010758;28;20443;-89
2022/04/10 02:15:15;;;;;;;6.40;2.53;;;2.90;99.90;;;;;;5010451;28;20565;-89
2022/04/10 02:17:42;;;;;;;8.00;2.93;;;2.80;99.90;;;;;;5005511;28;20238;-87
2022/04/10 02:20:10;;;;;;;11.47;3.10;;;2.80;99.90;;;;;;5022973;28;20234;-89
2022/04/10 02:22:39;;;;;;;9.87;3.20;;;2.80;99.90;;;;;;5014932;28;20242;-88
2022/04/10 02:25:06;;;;;;;10.40;3.33;;;2.90;99.90;;;;;;5019579;28;20229;-89
2022/04/10 02:27:33;;;;;;;9.97;3.60;;;2.90;99.90;;;;;;5021724;28;20203;-89
2022/04/10 02:30:00;;;;;;;8.83;3.17;;;2.90;99.90;;;;;;5028578;28;20206;-89
2022/04/10 02:32:30;;;;;;;7.07;2.90;;;3.00;99.90;;;;;;5022193;28;20204;-89
2022/04/10 02:34:57;;;;;;;11.57;3.33;;;3.00;99.90;;;;;;5013969;28;20237;-89
2022/04/10 02:37:24;;;;;;;6.80;2.63;;;3.00;99.90;;;;;;5011330;28;20257;-90
2022/04/10 02:39:50;;;;;;;7.57;2.90;;;3.10;99.90;;;;;;5010736;28;20694;-86
2022/04/10 02:42:17;;;;;;;8.80;2.97;;;3.10;99.90;;;;;;5021057;28;20267;-89
2022/04/10 02:44:44;;;;;;;9.50;3.83;;;3.20;99.90;;;;;;5021008;28;20313;-90
2022/04/10 02:47:11;;;;;;;8.13;3.43;;;3.30;99.90;;;;;;5011475;28;20218;-88
2022/04/10 02:49:38;;;;;;;13.20;3.00;;;3.50;99.90;;;;;;5011328;28;20200;-90
2022/04/10 02:52:05;;;;;;;10.20;3.70;;;3.40;99.90;;;;;;5013933;28;20234;-91
2022/04/10 02:54:36;;;;;;;8.53;2.63;;;3.50;99.90;;;;;;5012454;28;20729;-88
2022/04/10 02:57:03;;;;;;;6.90;2.20;;;3.50;99.90;;;;;;5014359;28;20298;-89
2022/04/10 02:59:30;;;;;;;9.77;2.60;;;3.50;99.90;;;;;;5001356;28;20681;-90
2022/04/10 03:01:57;;;;;;;4.70;2.20;;;3.50;99.90;;;;;;5022665;28;20203;-89
2022/04/10 03:04:24;;;;;;;7.80;2.70;;;3.50;99.90;;;;;;5012721;28;20271;-88
2022/04/10 03:06:54;;;;;;;5.30;2.10;;;3.40;99.90;;;;;;5020805;28;20230;-89
2022/04/10 03:09:21;;;;;;;10.80;2.70;;;3.40;99.90;;;;;;5017341;28;20227;-90
2022/04/10 03:11:49;;;;;;;6.57;2.30;;;3.40;99.90;;;;;;4999392;28;20215;-89
2022/04/10 03:14:16;;;;;;;10.33;2.13;;;3.40;99.90;;;;;;5018810;28;20223;-89
2022/04/10 03:16:43;;;;;;;8.20;2.33;;;3.30;99.90;;;;;;5009984;28;20343;-88
2022/04/10 03:19:16;;;;;;;7.83;2.43;;;3.30;99.90;;;;;;5011261;28;20686;-89
2022/04/10 03:21:43;;;;;;;9.43;2.73;;;3.30;99.90;;;;;;5013974;28;20366;-90
2022/04/10 03:24:10;;;;;;;12.03;2.27;;;3.40;99.90;;;;;;5016108;28;20224;-89
2022/04/10 03:26:39;;;;;;;5.93;2.20;;;3.40;99.90;;;;;;5013355;28;20695;-90
2022/04/10 03:29:07;;;;;;;5.17;2.20;;;3.40;99.90;;;;;;5014885;28;20212;-88
2022/04/10 03:31:34;;;;;;;5.53;2.00;;;3.40;99.90;;;;;;5018770;28;20213;-88
2022/04/10 03:34:01;;;;;;;7.10;2.03;;;3.50;99.90;;;;;;5010115;28;20200;-89
2022/04/10 03:36:29;;;;;;;8.23;2.37;;;3.50;99.90;;;;;;5015568;28;20561;-87
2022/04/10 03:38:57;;;;;;;7.37;2.50;;;3.60;99.90;;;;;;5022848;28;20208;-86
2022/04/10 03:41:24;;;;;;;9.07;2.23;;;3.60;99.90;;;;;;5018156;28;20284;-88
2022/04/10 03:43:51;;;;;;;6.87;2.20;;;3.60;99.90;;;;;;5011700;28;20211;-89
2022/04/10 03:46:18;;;;;;;7.87;2.07;;;3.70;99.90;;;;;;5017924;28;20226;-89
2022/04/10 03:48:45;;;;;;;6.03;2.30;;;3.70;99.90;;;;;;5008782;28;20236;-88
2022/04/10 03:51:12;;;;;;;7.60;2.40;;;3.80;99.90;;;;;;5011863;28;20212;-92
2022/04/10 03:53:41;;;;;;;5.47;2.40;;;3.80;99.90;;;;;;5028239;28;20206;-88
2022/04/10 03:56:08;;;;;;;7.43;2.30;;;3.90;99.90;;;;;;5025690;28;20212;-89
2022/04/10 03:58:36;;;;;;;7.23;2.40;;;3.80;99.90;;;;;;5025842;28;20209;-90
2022/04/10 04:01:03;;;;;;;3.47;2.30;;;3.70;99.90;;;;;;5025346;28;20230;-90
2022/04/10 04:03:30;;;;;;;8.27;2.13;;;3.70;99.90;;;;;;5014901;28;20216;-90
2022/04/10 04:05:57;;;;;;;6.93;2.20;;;3.60;99.90;;;;;;5014899;28;20232;-89
2022/04/10 04:08:25;;;;;;;8.57;2.73;;;3.60;99.90;;;;;;5016407;28;20250;-91
2022/04/10 04:10:53;;;;;;;7.87;2.30;;;3.60;99.90;;;;;;5003250;28;20212;-89
2022/04/10 04:13:23;;;;;;;4.83;2.10;;;3.60;99.90;;;;;;5020015;28;20203;-90
2022/04/10 04:15:51;;;;;;;11.23;2.30;;;3.60;99.90;;;;;;5011204;28;20212;-88
2022/04/10 04:18:19;;;;;;;11.37;2.67;;;3.60;99.90;;;;;;5015469;28;20898;-89
2022/04/10 04:20:46;;;;;;;22.67;3.13;;;3.60;99.90;;;;;;5016040;28;20236;-90
2022/04/10 04:23:17;;;;;;;7.20;2.20;;;3.70;99.90;;;;;;5018127;28;20288;-90
2022/04/10 04:25:45;;;;;;;9.93;2.40;;;3.70;99.90;;;;;;5018520;28;20275;-89
2022/04/10 04:28:14;;;;;;;7.07;2.00;;;3.70;99.90;;;;;;5013435;28;20671;-90
2022/04/10 04:30:41;;;;;;;8.70;2.23;;;3.70;99.90;;;;;;5018066;28;20200;-91
2022/04/10 04:33:08;;;;;;;8.37;2.27;;;3.70;99.90;;;;;;5012751;28;20209;-89
2022/04/10 04:35:35;;;;;;;8.00;2.30;;;3.70;99.90;;;;;;5007799;28;20207;-88
2022/04/10 04:38:03;;;;;;;15.63;2.43;;;3.70;99.90;;;;;;5017978;28;20231;-89
2022/04/10 04:40:30;;;;;;;8.60;2.50;;;3.60;99.90;;;;;;5014333;28;20330;-88
2022/04/10 04:42:58;;;;;;;7.33;3.37;;;3.60;99.90;;;;;;5030961;28;20219;-89
2022/04/10 04:45:25;;;;;;;10.83;4.50;;;3.50;99.90;;;;;;5028874;28;20218;-87
2022/04/10 04:47:52;;;;;;;10.30;4.73;;;3.50;99.90;;;;;;5029741;28;20265;-87
2022/04/10 04:50:21;;;;;;;9.10;3.13;;;3.40;99.90;;;;;;5022782;28;20226;-88
2022/04/10 04:52:51;;;;;;;9.40;3.50;;;3.30;99.90;;;;;;5023554;28;20355;-89
2022/04/10 04:55:20;;;;;;;10.93;3.03;;;3.20;99.90;;;;;;5017978;28;20203;-89
2022/04/10 04:57:49;;;;;;;5.47;2.50;;;3.10;99.90;;;;;;5015983;28;20560;-89
2022/04/10 05:00:17;;;;;;;8.53;2.67;;;3.10;99.90;;;;;;5010685;28;20228;-90
2022/04/10 05:02:45;;;;;;;9.17;2.60;;;3.10;99.90;;;;;;5016335;28;20618;-90
2022/04/10 05:05:13;;;;;;;8.83;2.67;;;3.00;99.90;;;;;;5014759;28;20224;-89
2022/04/10 05:07:43;;;;;;;8.20;3.10;;;2.90;99.90;;;;;;5017378;28;20695;-90
2022/04/10 05:10:10;;;;;;;8.60;3.10;;;2.90;99.90;;;;;;5018175;28;20266;-89
2022/04/10 05:12:38;;;;;;;13.90;3.50;;;2.90;99.90;;;;;;5015686;28;20261;-89
2022/04/10 05:15:07;;;;;;;8.37;3.73;;;2.80;99.90;;;;;;5012468;28;20258;-89
2022/04/10 05:17:35;;;;;;;11.20;3.20;;;2.80;99.90;;;;;;5023516;28;20211;-88
2022/04/10 05:20:04;;;;;;;12.63;3.97;;;2.80;99.90;;;;;;5027901;28;20209;-87
2022/04/10 05:22:34;;;;;;;8.20;3.67;;;2.80;99.90;;;;;;5026596;28;20330;-89
2022/04/10 05:25:02;;;;;;;13.47;3.90;;;2.70;99.90;;;;;;5028618;28;20257;-89
2022/04/10 05:27:30;;;;;;;12.60;4.40;;;2.70;99.90;;;;;;5023785;28;20194;-88
2022/04/10 05:29:59;;;;;;;10.33;3.73;;;2.70;99.90;;;;;;5021128;28;20292;-89
2022/04/10 05:32:25;;;;;;;12.57;4.27;;;2.70;99.90;;;;;;5019366;28;20207;-90
2022/04/10 05:34:52;;;;;;;16.23;3.87;;;2.70;99.90;;;;;;5016701;28;20258;-90
2022/04/10 05:37:20;;;;;;;8.27;4.77;;;2.70;99.90;;;;;;5009887;28;20306;-89
2022/04/10 05:39:48;;;;;;;14.57;4.30;;;2.60;99.90;;;;;;5011436;28;20251;-88
2022/04/10 05:42:15;;;;;;;15.20;4.47;;;2.70;99.90;;;;;;5013830;28;20232;-91
2022/04/10 05:44:43;;;;;;;11.93;4.43;;;2.70;99.90;;;;;;5015355;28;20211;-90
2022/04/10 05:47:11;;;;;;;12.10;3.93;;;2.70;99.90;;;;;;5016455;28;20214;-89
2022/04/10 05:49:38;;;;;;;15.77;4.97;;;2.80;99.90;;;;;;5015003;28;20751;-90
2022/04/10 05:52:07;;;;;;;9.80;4.30;;;2.80;99.90;;;;;;5008941;28;20266;-88
2022/04/10 05:54:35;;;;;;;11.50;4.13;;;2.90;99.90;;;;;;5010443;28;20229;-88
2022/04/10 05:57:02;;;;;;;8.87;3.70;;;2.90;99.90;;;;;;5011335;28;20288;-87
2022/04/10 05:59:29;;;;;;;12.93;4.27;;;3.10;99.90;;;;;;5005702;28;20198;-90
2022/04/10 06:01:56;;;;;;;15.67;4.20;;;3.20;99.90;;;;;;5004389;28;20262;-87
2022/04/10 06:04:23;;;;;;;14.57;4.27;;;3.40;99.90;;;;;;5007680;28;20289;-87
2022/04/10 06:06:50;;;;;;;14.50;4.30;;;3.50;99.90;;;;;;5006449;28;20254;-86
2022/04/10 06:09:17;;;;;;;12.07;3.77;;;3.70;99.90;;;;;;5000869;28;20227;-88
2022/04/10 06:11:44;;;;;;;8.60;4.03;;;3.70;99.90;;;;;;5002320;28;20208;-87
2022/04/10 06:14:11;;;;;;;10.67;3.20;;;3.80;99.90;;;;;;5002084;28;20213;-89
2022/04/10 06:16:38;;;;;;;10.43;3.00;;;3.90;99.90;;;;;;4998567;28;20383;-88
2022/04/10 06:19:04;;;;;;;9.33;3.27;;;4.00;99.90;;;;;;5005815;28;20231;-87
2022/04/10 06:21:31;;;;;;;12.77;3.77;;;4.00;99.90;;;;;;5005429;28;20312;-89
2022/04/10 06:23:58;;;;;;;10.70;3.27;;;4.10;99.90;;;;;;5011101;28;20310;-86
2022/04/10 06:26:25;;;;;;;15.00;3.37;;;4.30;99.90;;;;;;5015710;28;20203;-87
2022/04/10 06:28:53;;;;;;;14.47;3.23;;;4.40;99.90;;;;;;5011557;28;20244;-86
2022/04/10 06:31:19;;;;;;;8.50;2.90;;;4.60;99.90;;;;;;5009776;28;20344;-86
2022/04/10 06:33:47;;;;;;;8.63;2.97;;;4.70;99.90;;;;;;5024079;28;20210;-89
2022/04/10 06:36:13;;;;;;;12.87;5.03;;;4.80;99.90;;;;;;5008623;28;20212;-88
2022/04/10 06:38:40;;;;;;;12.30;6.57;;;4.90;99.90;;;;;;5011587;28;20227;-89
2022/04/10 06:41:08;;;;;;;9.63;4.77;;;5.10;99.90;;;;;;5006862;28;20233;-87
2022/04/10 06:43:34;;;;;;;7.70;3.20;;;5.20;99.90;;;;;;5005632;28;20273;-88
2022/04/10 06:46:04;;;;;;;7.77;3.77;;;5.40;99.90;;;;;;5014383;28;20581;-89
2022/04/10 06:48:31;;;;;;;7.43;2.70;;;5.40;99.90;;;;;;5006490;28;20212;-82
2022/04/10 06:50:58;;;;;;;7.50;3.20;;;5.30;99.90;;;;;;5002913;28;20298;-88
2022/04/10 06:53:25;;;;;;;8.60;4.00;;;5.20;99.90;;;;;;5009959;28;20222;-89
2022/04/10 06:55:52;;;;;;;5.63;3.33;;;5.20;99.90;;;;;;5012851;28;20325;-89
2022/04/10 06:58:22;;;;;;;8.13;4.17;;;5.20;99.90;;;;;;5008984;28;20207;-88
2022/04/10 07:00:49;;;;;;;18.87;9.23;;;5.20;99.90;;;;;;5005565;28;20285;-87
2022/04/10 07:03:18;;;;;;;8.93;5.33;;;5.30;99.90;;;;;;5005363;28;20307;-88
2022/04/10 07:05:49;;;;;;;8.60;4.80;;;5.30;99.90;;;;;;5000498;28;20212;-88
2022/04/10 07:08:16;;;;;;;10.73;3.10;;;5.30;99.90;;;;;;5004623;28;20246;-88
2022/04/10 07:10:43;;;;;;;9.03;3.37;;;5.50;99.90;;;;;;5008265;28;20203;-88
2022/04/10 07:13:11;;;;;;;9.67;3.73;;;5.50;99.90;;;;;;5004731;28;20219;-88
2022/04/10 07:15:40;;;;;;;12.70;4.93;;;5.60;99.90;;;;;;5002337;28;20238;-90
2022/04/10 07:18:09;;;;;;;15.93;6.40;;;5.70;99.90;;;;;;5005433;28;20266;-89
2022/04/10 07:20:36;;;;;;;6.20;3.40;;;6.20;99.90;;;;;;5014269;28;20227;-89
2022/04/10 07:25:52;;;;;;;4.87;1.70;;;8.20;99.90;;;;;;5015471;28;20288;-90
2022/04/10 07:28:20;;;;;;;4.03;2.10;;;8.70;99.90;;;;;;5018300;28;20587;-87
2022/04/10 07:30:47;;;;;;;4.43;1.60;;;10.40;99.90;;;;;;5020518;28;20535;-87
2022/04/10 07:33:14;;;;;;;4.30;2.00;;;11.00;99.90;;;;;;5022284;28;20217;-88
2022/04/10 07:35:42;;;;;;;6.27;1.50;;;11.80;99.90;;;;;;5011799;28;20222;-90
2022/04/10 07:38:10;;;;;;;5.70;2.10;;;12.50;99.90;;;;;;5013524;28;20268;-88
2022/04/10 07:40:40;;;;;;;3.00;1.53;;;12.80;99.90;;;;;;5023852;28;20202;-89
2022/04/10 07:43:09;;;;;;;3.37;0.90;;;13.30;99.90;;;;;;5015451;28;20215;-88
2022/04/10 07:48:43;;;;;;;2.15;1.17;;;13.40;99.90;;;;;;5020158;28;20182;-89
2022/04/10 07:51:10;;;;;;;3.13;1.00;;;;;;;;;;5009408;28;20266;-86
2022/04/10 07:53:38;;;;;;;3.92;1.80;;;14.00;99.90;;;;;;5014428;28;20280;-88
2022/04/10 07:56:05;;;;;;;2.42;1.10;;;14.10;99.90;;;;;;5021185;28;20291;-91
2022/04/10 07:58:51;;;;;;;4.85;1.30;;;14.20;99.90;;;;;;5024561;28;20227;-90
2022/04/10 08:01:19;;;;;;;2.80;1.20;;;14.40;99.90;;;;;;5029956;28;20689;-89
2022/04/10 08:03:51;;;;;;;3.33;1.25;;;14.50;99.90;;;;;;5000909;28;20612;-89
2022/04/10 08:06:23;;;;;;;4.00;1.27;;;14.40;99.90;;;;;;5023260;28;20262;-89
2022/04/10 08:08:52;;;;;;;2.35;1.08;;;14.60;99.90;;;;;;5033050;28;20205;-90
2022/04/10 08:11:19;;;;;;;3.88;1.73;;;14.70;99.90;;;;;;5021290;28;20203;-89
2022/04/10 08:14:34;;;;;;;3.10;0.98;;;14.80;99.90;;;;;;5032102;28;20203;-90
2022/04/10 08:17:31;;;;;;;3.80;0.90;;;14.70;99.90;;;;;;5030163;28;20260;-91
2022/04/10 08:19:58;;;;;;;2.65;0.90;;;14.90;99.90;;;;;;5015862;28;20247;-88
2022/04/10 08:22:26;;;;;;;3.28;1.00;;;15.20;99.90;;;;;;5021112;28;20518;-88
2022/04/10 08:25:04;;;;;;;3.05;0.93;;;15.20;99.90;;;;;;5017563;28;20198;-89
2022/04/10 08:27:33;;;;;;;6.90;2.60;;;15.10;99.90;;;;;;5019894;28;20209;-89
2022/04/10 08:30:00;;;;;;;3.72;1.00;;;15.00;99.90;;;;;;5017975;28;20198;-89
2022/04/10 08:32:42;;;;;;;3.00;1.13;;;15.00;99.90;;;;;;5023636;28;20242;-88
2022/04/10 08:35:11;;;;;;;1.90;1.00;;;14.80;99.90;;;;;;5019696;28;20206;-88
2022/04/10 08:37:44;;;;;;;4.50;1.23;;;14.70;99.90;;;;;;5025283;28;20234;-88
2022/04/10 08:40:12;;;;;;;4.57;1.02;;;14.40;99.90;;;;;;5023073;28;20191;-89
2022/04/10 08:42:44;;;;;;;6.20;1.20;;;14.10;99.90;;;;;;5027487;28;20298;-90
2022/04/10 08:45:12;;;;;;;3.90;1.10;;;13.70;99.90;;;;;;5031623;28;20210;-90
2022/04/10 08:47:44;;;;;;;4.00;1.23;;;13.20;99.90;;;;;;5014529;28;20225;-88
2022/04/10 08:50:12;;;;;;;4.53;1.27;;;13.00;99.90;;;;;;5029739;28;20187;-89
2022/04/10 08:52:50;;;;;;;5.67;1.17;;;13.20;99.90;;;;;;5015889;28;20278;-88
2022/04/10 08:55:29;;;;;;;5.60;1.50;;;13.60;99.90;;;;;;5037862;28;20213;-90
2022/04/10 08:57:56;;;;;;;4.07;1.23;;;13.80;99.90;;;;;;5025468;28;20221;-89
2022/04/10 09:00:24;;;;;;;4.80;1.10;;;13.80;99.90;;;;;;5023702;28;20229;-88
2022/04/10 09:02:55;;;;;;;6.07;1.13;;;13.50;99.90;;;;;;5024550;28;20234;-87
2022/04/10 09:05:25;;;;;;;3.50;1.00;;;13.50;99.90;;;;;;5023110;28;20210;-90
2022/04/10 09:08:14;;;;;;;3.30;1.07;;;13.80;99.90;;;;;;5017308;28;20226;-88
2022/04/10 09:11:09;;;;;;;5.00;1.00;;;13.90;99.90;;;;;;5020695;28;20699;-90
2022/04/10 09:13:37;;;;;;;5.20;1.17;;;13.90;99.90;;;;;;5022298;28;20187;-90
2022/04/10 09:16:15;;;;;;;4.37;1.27;;;13.30;99.90;;;;;;5025919;28;20195;-90
2022/04/10 09:18:55;;;;;;;1.07;0.80;;;13.10;99.90;;;;;;4998605;28;20213;-88
2022/04/10 09:21:29;;;;;;;2.60;0.97;;;13.00;99.90;;;;;;5005343;28;20667;-90
2022/04/10 09:24:10;;;;;;;3.37;1.10;;;13.00;99.90;;;;;;5000036;28;20294;-92
2022/04/10 09:26:58;;;;;;;5.43;1.07;;;13.00;99.90;;;;;;5000007;28;20192;-92
2022/04/10 09:29:26;;;;;;;4.13;1.20;;;13.00;99.90;;;;;;5000304;28;20511;-89
2022/04/10 09:31:54;;;;;;;3.60;1.00;;;13.10;99.90;;;;;;4997093;28;20227;-91
2022/04/10 09:34:30;;;;;;;2.40;1.00;;;12.60;99.90;;;;;;4999713;28;20198;-90
2022/04/10 09:37:22;;;;;;;2.33;1.17;;;12.50;99.90;;;;;;5000075;28;20245;-90
2022/04/10 09:39:50;;;;;;;3.77;1.10;;;12.80;99.90;;;;;;4997046;28;20199;-88
2022/04/10 09:42:31;;;;;;;3.73;1.10;;;12.80;99.90;;;;;;5000426;28;20275;-90
2022/04/10 09:45:43;;;;;;;2.77;1.27;;;12.90;99.90;;;;;;4997872;28;20204;-90
2022/04/10 09:48:28;;;;;;;6.67;1.40;;;13.20;99.90;;;;;;4994890;28;20276;-89
2022/04/10 09:51:00;;;;;;;1.87;1.10;;;13.30;99.90;;;;;;4990287;28;20206;-90
2022/04/10 09:53:32;;;;;;;3.00;0.90;;;13.40;99.90;;;;;;4993687;28;20253;-88
2022/04/10 09:56:04;;;;;;;4.00;1.03;;;13.40;99.90;;;;;;4993649;28;20877;-91
2022/04/10 09:58:32;;;;;;;4.97;1.07;;;13.40;99.90;;;;;;4987347;28;20258;-88
2022/04/10 10:01:03;;;;;;;3.70;1.40;;;13.40;99.90;;;;;;4993756;28;20211;-90
2022/04/10 10:03:36;;;;;;;3.73;1.30;;;13.30;99.90;;;;;;4991080;28;20203;-90
2022/04/10 10:06:07;;;;;;;5.03;1.17;;;13.20;99.90;;;;;;4985985;28;20195;-90
2022/04/10 10:08:35;;;;;;;4.67;1.17;;;13.10;99.90;;;;;;4980991;28;20222;-89
2022/04/10 10:11:02;;;;;;;4.30;1.20;;;12.80;99.90;;;;;;4989328;28;20554;-91
2022/04/10 10:13:30;;;;;;;2.30;1.10;;;12.70;99.90;;;;;;5014076;28;20277;-91
2022/04/10 10:15:59;;;;;;;7.27;1.80;;;12.90;99.90;;;;;;4985951;28;20261;-89
2022/04/10 10:18:26;;;;;;;1.73;0.90;;;13.20;99.90;;;;;;5001716;28;20239;-89
2022/04/10 10:20:53;;;;;;;3.40;1.00;;;13.00;99.90;;;;;;5016293;28;20209;-83
2022/04/10 10:23:22;;;;;;;4.60;1.73;;;12.90;99.90;;;;;;5011114;28;20417;-90
2022/04/10 10:26:14;;;;;;;3.17;1.30;;;12.70;99.90;;;;;;5014241;28;20236;-87
2022/04/10 10:29:32;;;;;;;3.30;1.60;;;12.50;99.90;;;;;;5008658;28;20253;-89
2022/04/10 10:32:03;;;;;;;3.50;1.20;;;12.70;99.90;;;;;;4969287;28;20219;-89
2022/04/10 10:34:31;;;;;;;1.27;0.90;;;12.70;99.90;;;;;;4954418;28;20204;-89
2022/04/10 10:37:02;;;;;;;3.33;1.00;;;12.60;99.90;;;;;;4984140;28;20219;-90
2022/04/10 10:39:44;;;;;;;2.53;1.13;;;12.80;99.90;;;;;;5018010;28;20306;-90
2022/04/10 10:42:12;;;;;;;1.37;0.90;;;12.70;99.90;;;;;;5009460;28;20674;-88
2022/04/10 10:44:41;;;;;;;2.20;0.90;;;12.80;99.90;;;;;;5007812;28;20202;-90
2022/04/10 10:47:20;;;;;;;2.70;0.90;;;12.90;99.90;;;;;;5008638;28;20331;-90
2022/04/10 10:49:49;;;;;;;2.97;1.13;;;13.10;99.90;;;;;;5009484;28;20264;-89
2022/04/10 10:52:17;;;;;;;3.80;2.17;;;13.20;99.90;;;;;;5011874;28;20582;-88
2022/04/10 10:54:57;;;;;;;3.87;1.20;;;13.20;99.90;;;;;;5011554;28;20644;-89
2022/04/10 10:57:31;;;;;;;3.40;0.93;;;13.20;99.90;;;;;;5012282;28;20218;-88
2022/04/10 11:00:05;;;;;;;2.17;1.00;;;13.40;99.90;;;;;;5016400;28;20198;-89
2022/04/10 11:02:35;;;;;;;3.10;0.90;;;13.50;99.90;;;;;;5018394;28;20225;-89
2022/04/10 11:05:29;;;;;;;2.40;0.97;;;13.60;99.90;;;;;;5020341;28;20667;-89
2022/04/10 11:08:08;;;;;;;4.07;1.20;;;13.60;99.90;;;;;;5014480;28;20214;-88
2022/04/10 11:10:50;;;;;;;3.77;1.23;;;13.60;99.90;;;;;;5015950;28;20290;-88
2022/04/10 11:13:19;;;;;;;4.37;1.10;;;13.60;99.90;;;;;;5015533;28;20190;-90
2022/04/10 11:15:48;;;;;;;3.60;0.80;;;13.70;99.90;;;;;;5015702;28;20214;-91
2022/04/10 11:18:35;;;;;;;2.63;0.97;;;13.70;99.90;;;;;;5020693;28;20334;-90
2022/04/10 11:21:15;;;;;;;2.80;1.10;;;13.80;99.90;;;;;;5005488;28;20306;-88
2022/04/10 11:23:52;;;;;;;3.53;1.00;;;13.90;99.90;;;;;;5011521;28;20306;-88
2022/04/10 11:26:20;;;;;;;3.27;1.00;;;14.10;99.90;;;;;;5012411;28;20265;-89
2022/04/10 11:29:06;;;;;;;3.97;0.80;;;14.20;99.90;;;;;;5008825;28;20247;-87
2022/04/10 11:31:48;;;;;;;3.03;0.93;;;14.30;99.90;;;;;;5003782;28;20210;-86
2022/04/10 11:34:26;;;;;;;2.90;0.90;;;14.30;99.90;;;;;;5004919;28;20619;-89
2022/04/10 11:36:56;;;;;;;2.77;0.90;;;14.40;98.40;;;;;;5003445;28;20421;-86
2022/04/10 11:39:26;;;;;;;3.30;0.80;;;14.50;99.50;;;;;;5000611;28;20282;-83
2022/04/10 11:42:01;;;;;;;3.67;1.80;;;14.30;99.00;;;;;;5004894;28;20218;-83
2022/04/10 11:44:29;;;;;;;5.77;1.33;;;14.10;96.80;;;;;;5004231;28;20615;-85
2022/04/10 11:46:59;;;;;;;3.20;0.97;;;13.90;98.30;;;;;;5008636;28;20215;-86
2022/04/10 11:49:27;;;;;;;2.27;0.90;;;14.00;98.70;;;;;;4999650;28;20268;-85
2022/04/10 11:51:56;;;;;;;4.00;0.97;;;14.10;97.70;;;;;;5004222;28;20206;-86
2022/04/10 11:54:35;;;;;;;1.27;0.80;;;14.20;96.90;;;;;;5005992;28;20312;-86
2022/04/10 11:57:05;;;;;;;2.80;0.90;;;14.40;95.70;;;;;;5009357;28;20233;-86
2022/04/10 11:59:37;;;;;;;2.90;1.13;;;14.50;96.30;;;;;;5008991;28;20207;-84
2022/04/10 12:02:07;;;;;;;3.10;0.90;;;14.70;96.40;;;;;;5001465;28;20301;-87
2022/04/10 12:04:36;;;;;;;1.93;0.93;;;14.80;96.40;;;;;;5019192;28;20215;-87
2022/04/10 12:07:12;;;;;;;2.40;0.73;;;14.80;95.20;;;;;;5016955;28;20305;-85
2022/04/10 12:09:41;;;;;;;2.10;0.90;;;14.40;94.90;;;;;;5015907;28;20214;-85
2022/04/10 12:12:08;;;;;;;1.53;0.83;;;14.30;94.50;;;;;;5015308;28;20260;-85
2022/04/10 12:14:35;;;;;;;3.60;0.90;;;14.20;95.30;;;;;;5006534;28;20273;-85
2022/04/10 12:17:02;;;;;;;3.23;1.43;;;14.30;95.30;;;;;;5000263;28;20305;-85
2022/04/10 12:19:36;;;;;;;1.87;0.97;;;14.40;95.10;;;;;;4995072;28;20283;-85
2022/04/10 12:22:04;;;;;;;3.83;1.00;;;14.40;94.80;;;;;;4999534;28;20692;-85
2022/04/10 12:24:32;;;;;;;1.00;0.80;;;14.20;94.00;;;;;;5001377;28;20302;-87
2022/04/10 12:26:59;;;;;;;2.83;0.90;;;14.00;93.50;;;;;;5005531;28;20290;-84
2022/04/10 12:29:30;;;;;;;4.17;0.93;;;13.80;93.40;;;;;;5004237;28;20705;-85
2022/04/10 12:31:58;;;;;;;2.73;1.10;;;13.80;93.10;;;;;;4998655;28;20262;-86
2022/04/10 12:34:32;;;;;;;2.50;0.90;;;13.80;94.00;;;;;;5000924;28;20675;-84
2022/04/10 12:37:08;;;;;;;2.17;0.80;;;13.80;94.30;;;;;;5005385;28;20218;-84
2022/04/10 12:39:35;;;;;;;2.80;1.47;;;14.00;94.30;;;;;;5007467;28;20205;-83
2022/04/10 12:42:09;;;;;;;2.90;0.83;;;14.30;93.90;;;;;;5004223;28;20202;-84
2022/04/10 12:44:37;;;;;;;1.90;0.80;;;14.40;92.50;;;;;;5001497;28;20607;-83
2022/04/10 12:47:06;;;;;;;2.33;0.90;;;14.60;92.80;;;;;;5007063;28;20210;-85
2022/04/10 12:49:34;;;;;;;1.30;0.60;;;14.70;92.40;;;;;;5001633;28;20203;-83
2022/04/10 12:52:05;;;;;;;1.27;0.80;;;14.80;92.30;;;;;;5008847;28;20218;-87
2022/04/10 12:54:36;;;;;;;2.07;0.70;;;14.90;92.70;;;;;;4997559;28;20211;-84
2022/04/10 12:57:06;;;;;;;2.20;1.20;;;14.90;91.90;;;;;;5002256;28;20617;-84
2022/04/10 12:59:48;;;;;;;3.30;0.87;;;15.00;90.80;;;;;;5000367;28;20202;-84
2022/04/10 13:02:27;;;;;;;3.50;0.70;;;14.90;90.90;;;;;;5016605;28;20230;-86
2022/04/10 13:05:00;;;;;;;3.20;0.70;;;15.20;91.10;;;;;;5000817;28;20344;-84
2022/04/10 13:07:30;;;;;;;1.40;0.73;;;15.30;90.90;;;;;;5002120;28;20709;-84
2022/04/10 13:10:04;;;;;;;2.03;1.00;;;15.40;91.10;;;;;;5005525;28;20214;-87
2022/04/10 13:12:38;;;;;;;1.60;0.80;;;15.40;90.50;;;;;;5002899;28;20681;-84
2022/04/10 13:15:11;;;;;;;3.60;0.63;;;15.50;90.50;;;;;;5002205;28;20900;-86